createdAt,value
2018-11-05T00:01:14.669Z,45.20
2018-11-05T00:05:59.087Z,43.90
2018-11-05T00:10:42.778Z,39.90
2018-11-05T00:15:26.585Z,42.57
2018-11-05T00:20:12.367Z,40.30
2018-11-05T00:24:56.031Z,40.93
2018-11-05T00:29:39.731Z,43.93
2018-11-05T00:34:23.549Z,42.53
2018-11-05T00:39:09.453Z,43.27
2018-11-05T00:43:53.183Z,42.00
2018-11-05T00:48:40.400Z,37.80
2018-11-05T00:53:24.142Z,38.37
2018-11-05T00:58:07.940Z,43.40
2018-11-05T01:02:51.871Z,39.77
2018-11-05T01:07:35.592Z,40.60
2018-11-05T01:12:19.317Z,41.37
2018-11-05T01:17:03.013Z,41.93
2018-11-05T01:21:46.708Z,43.47
2018-11-05T01:26:30.497Z,47.50
2018-11-05T01:31:14.376Z,45.63
2018-11-05T01:35:58.185Z,46.70
2018-11-05T01:40:41.921Z,45.57
2018-11-05T01:45:25.632Z,42.77
2018-11-05T01:50:11.188Z,46.23
2018-11-05T01:54:54.887Z,45.87
2018-11-05T01:59:38.822Z,51.93
2018-11-05T02:04:22.618Z,51.33
2018-11-05T02:09:08.485Z,51.40
2018-11-05T02:13:52.242Z,48.60
2018-11-05T02:18:36.011Z,44.67
2018-11-05T02:23:19.764Z,45.10
2018-11-05T02:28:03.590Z,43.67
2018-11-05T02:32:47.845Z,42.13
2018-11-05T02:37:31.794Z,37.80
2018-11-05T02:42:15.472Z,39.33
2018-11-05T02:46:59.262Z,40.40
2018-11-05T02:51:43.077Z,41.30
2018-11-05T02:56:26.850Z,40.27
2018-11-05T03:01:10.519Z,40.97
2018-11-05T03:05:54.611Z,44.43
2018-11-05T03:10:38.549Z,44.40
2018-11-05T03:15:22.635Z,43.43
2018-11-05T03:20:07.381Z,49.93
2018-11-05T03:24:51.389Z,46.53
2018-11-05T03:29:35.175Z,48.43
2018-11-05T03:34:18.771Z,46.50
2018-11-05T03:39:02.544Z,49.23
2018-11-05T03:43:46.218Z,47.40
2018-11-05T03:48:29.944Z,45.10
2018-11-05T03:53:13.672Z,47.10
2018-11-05T03:57:57.365Z,46.90
2018-11-05T04:02:41.306Z,43.73
2018-11-05T04:07:25.020Z,43.50
2018-11-05T04:12:08.835Z,41.73
2018-11-05T04:16:52.550Z,39.47
2018-11-05T04:21:42.287Z,40.37
2018-11-05T04:26:26.107Z,39.57
2018-11-05T04:31:09.975Z,35.33
2018-11-05T04:35:53.649Z,36.33
2018-11-05T04:40:37.429Z,37.30
2018-11-05T04:45:21.223Z,36.47
2018-11-05T04:50:05.738Z,36.00
2018-11-05T04:54:49.449Z,35.93
2018-11-05T04:59:33.321Z,34.70
2018-11-05T05:04:16.982Z,33.97
2018-11-05T05:09:00.807Z,35.13
2018-11-05T05:13:44.559Z,35.37
2018-11-05T05:18:28.565Z,34.00
2018-11-05T05:23:12.381Z,33.60
2018-11-05T05:27:56.015Z,31.57
2018-11-05T05:32:39.685Z,30.73
2018-11-05T05:37:23.395Z,31.23
2018-11-05T05:42:07.373Z,30.57
2018-11-05T05:46:51.137Z,30.03
2018-11-05T05:51:35.233Z,29.93
2018-11-05T05:56:19.023Z,31.87
2018-11-05T06:01:02.680Z,29.83
2018-11-05T06:05:46.353Z,29.63
2018-11-05T06:10:30.171Z,28.53
2018-11-05T06:15:15.145Z,28.93
2018-11-05T06:19:58.883Z,28.97
2018-11-05T06:24:42.563Z,29.30
2018-11-05T06:29:26.260Z,28.40
2018-11-05T06:34:09.960Z,30.13
2018-11-05T06:38:54.538Z,28.07
2018-11-05T06:43:38.282Z,26.10
2018-11-05T06:48:21.909Z,25.63
2018-11-05T06:53:05.781Z,27.03
2018-11-05T06:57:49.726Z,27.33
2018-11-05T07:02:33.574Z,24.70
2018-11-05T07:07:17.254Z,28.37
2018-11-05T07:12:01.021Z,26.00
2018-11-05T07:16:44.726Z,25.40
2018-11-05T07:21:28.561Z,25.23
2018-11-05T07:26:12.284Z,26.50
2018-11-05T07:30:56.040Z,23.43
2018-11-05T07:35:39.728Z,24.53
2018-11-05T07:40:23.480Z,24.07
2018-11-05T07:45:09.256Z,25.20
2018-11-05T07:49:53.057Z,24.27
2018-11-05T07:54:36.874Z,22.17
2018-11-05T07:59:20.629Z,22.03
2018-11-05T08:04:04.403Z,22.37
2018-11-05T08:08:48.339Z,21.20
2018-11-05T08:13:32.344Z,21.63
2018-11-05T08:18:16.340Z,21.60
2018-11-05T08:23:00.052Z,22.27
2018-11-05T08:27:43.767Z,20.87
2018-11-05T08:32:27.488Z,21.97
2018-11-05T08:37:11.442Z,20.40
2018-11-05T08:41:55.143Z,21.03
2018-11-05T08:46:39.419Z,21.90
2018-11-05T08:51:23.679Z,20.20
2018-11-05T08:56:07.246Z,19.57
2018-11-05T09:00:54.914Z,20.20
2018-11-05T09:05:38.631Z,19.73
2018-11-05T09:10:22.479Z,18.90
2018-11-05T09:15:07.403Z,19.10
2018-11-05T09:19:51.045Z,19.50
2018-11-05T09:24:34.741Z,19.00
2018-11-05T09:29:18.529Z,18.23
2018-11-05T09:34:02.425Z,19.03
2018-11-05T09:38:46.214Z,18.57
2018-11-05T09:43:30.048Z,21.40
2018-11-05T09:48:13.769Z,18.77
2018-11-05T09:52:57.498Z,18.60
2018-11-05T09:57:41.495Z,18.47
2018-11-05T10:02:29.708Z,18.87
2018-11-05T10:07:13.385Z,17.90
2018-11-05T10:11:57.038Z,18.10
2018-11-05T10:16:40.736Z,18.60
2018-11-05T10:21:24.760Z,18.63
2018-11-05T10:26:08.514Z,19.30
2018-11-05T10:30:52.298Z,18.73
2018-11-05T10:35:41.433Z,18.23
2018-11-05T10:40:25.248Z,17.23
2018-11-05T10:45:10.394Z,16.30
2018-11-05T10:49:54.064Z,20.70
2018-11-05T10:54:37.871Z,17.43
2018-11-05T10:59:21.876Z,16.97
2018-11-05T11:04:11.206Z,16.30
2018-11-05T11:08:54.882Z,15.73
2018-11-05T11:13:38.722Z,13.77
2018-11-05T11:18:22.440Z,13.90
2018-11-05T11:23:06.670Z,14.50
2018-11-05T11:27:50.594Z,13.13
2018-11-05T11:32:34.466Z,13.53
2018-11-05T11:37:18.368Z,13.00
2018-11-05T11:42:02.084Z,13.47
2018-11-05T11:46:45.897Z,13.07
2018-11-05T11:51:29.746Z,12.77
2018-11-05T11:56:13.534Z,12.90
2018-11-05T12:00:57.441Z,13.30
2018-11-05T12:05:41.213Z,13.37
2018-11-05T12:10:25.229Z,14.37
2018-11-05T12:15:10.012Z,13.93
2018-11-05T12:19:53.698Z,14.70
2018-11-05T12:24:37.579Z,15.57
2018-11-05T12:29:21.488Z,17.23
2018-11-05T12:34:06.024Z,16.97
2018-11-05T12:38:50.168Z,17.43
2018-11-05T12:43:33.906Z,17.97
2018-11-05T12:48:17.706Z,18.97
2018-11-05T12:53:02.025Z,18.47
2018-11-05T12:57:46.098Z,17.90
2018-11-05T13:02:29.894Z,18.70
2018-11-05T13:07:14.115Z,19.10
2018-11-05T13:11:57.942Z,18.67
2018-11-05T13:16:41.854Z,17.57
2018-11-05T13:21:25.568Z,17.33
2018-11-05T13:26:09.312Z,18.13
2018-11-05T13:30:52.992Z,17.20
2018-11-05T13:35:36.736Z,18.10
2018-11-05T13:40:21.595Z,17.83
2018-11-05T13:45:06.355Z,18.47
2018-11-05T13:49:50.530Z,18.27
2018-11-05T13:54:34.262Z,18.53
2018-11-05T13:59:17.849Z,17.60
2018-11-05T14:04:01.628Z,18.03
2018-11-05T14:08:45.405Z,17.03
2018-11-05T14:13:29.127Z,18.07
2018-11-05T14:18:12.922Z,16.50
2018-11-05T14:22:56.672Z,18.20
2018-11-05T14:27:40.917Z,18.23
2018-11-05T14:32:24.404Z,17.63
2018-11-05T14:37:08.169Z,18.57
2018-11-05T14:41:52.046Z,16.97
2018-11-05T14:46:35.682Z,16.93
2018-11-05T14:51:19.407Z,16.60
2018-11-05T14:56:03.118Z,16.07
2018-11-05T15:00:46.896Z,16.30
2018-11-05T15:05:30.677Z,16.17
2018-11-05T15:10:15.724Z,15.50
2018-11-05T15:14:59.590Z,16.40
2018-11-05T15:19:43.737Z,15.73
2018-11-05T15:24:27.284Z,15.70
2018-11-05T15:29:11.143Z,16.03
2018-11-05T15:33:54.851Z,15.97
2018-11-05T15:38:38.536Z,15.70
2018-11-05T15:43:22.340Z,16.07
2018-11-05T15:48:06.301Z,15.40
2018-11-05T15:52:50.658Z,15.10
2018-11-05T15:57:33.999Z,15.40
2018-11-05T16:02:17.712Z,15.17
2018-11-05T16:07:01.707Z,14.93
2018-11-05T16:11:45.605Z,16.63
2018-11-05T16:16:29.732Z,16.17
2018-11-05T16:21:13.755Z,16.33
2018-11-05T16:25:57.402Z,15.67
2018-11-05T16:30:41.513Z,15.43
2018-11-05T16:35:25.648Z,16.17
2018-11-05T16:40:11.619Z,15.97
2018-11-05T16:44:55.734Z,15.70
2018-11-05T16:49:39.458Z,18.82
2018-11-05T16:54:23.381Z,16.23
2018-11-05T16:59:07.737Z,16.63
2018-11-05T17:03:52.432Z,16.47
2018-11-05T17:08:36.180Z,16.73
2018-11-05T17:13:20.245Z,15.80
2018-11-05T17:18:04.168Z,15.90
2018-11-05T17:22:47.928Z,17.27
2018-11-05T17:27:32.084Z,18.13
2018-11-05T17:32:16.022Z,15.20
2018-11-05T17:37:03.386Z,15.73
2018-11-05T17:41:47.927Z,18.50
2018-11-05T17:46:31.705Z,16.80
2018-11-05T17:51:15.434Z,15.32
2018-11-05T17:55:59.556Z,15.83
2018-11-05T18:00:44.005Z,17.53
2018-11-05T18:05:27.866Z,15.13
2018-11-05T18:10:11.805Z,14.90
2018-11-05T18:14:55.524Z,15.00
2018-11-05T18:19:39.434Z,15.37
2018-11-05T18:29:18.652Z,14.97
2018-11-05T18:34:02.468Z,15.77
2018-11-05T18:38:47.768Z,15.10
2018-11-05T18:43:31.754Z,15.87
2018-11-05T18:48:16.135Z,15.20
2018-11-05T18:53:00.076Z,14.90
2018-11-05T18:57:44.030Z,16.00
2018-11-05T19:02:33.641Z,15.67
2018-11-05T19:07:17.982Z,16.20
2018-11-05T19:12:01.814Z,15.60
2018-11-05T19:16:45.776Z,14.93
2018-11-05T19:21:32.611Z,16.03
2018-11-05T19:26:16.509Z,15.33
2018-11-05T19:31:00.509Z,17.87
2018-11-05T19:35:44.503Z,16.03
2018-11-05T19:40:28.431Z,19.20
2018-11-05T19:45:14.342Z,17.90
2018-11-05T19:49:58.425Z,16.57
2018-11-05T19:54:42.297Z,22.30
2018-11-05T19:59:26.313Z,16.23
2018-11-05T20:04:17.347Z,15.73
2018-11-05T20:09:01.247Z,15.47
2018-11-05T20:13:45.625Z,16.43
2018-11-05T20:18:29.959Z,16.53
2018-11-05T20:23:13.687Z,16.37
2018-11-05T20:27:57.777Z,15.93
2018-11-05T20:32:42.101Z,17.70
2018-11-05T20:37:29.328Z,17.70
2018-11-05T20:42:13.603Z,16.47
2018-11-05T20:46:57.697Z,48.77
2018-11-05T20:51:45.978Z,17.70
2018-11-05T20:56:30.454Z,16.67
2018-11-05T21:01:14.637Z,16.80
2018-11-05T21:05:58.817Z,18.00
2018-11-05T21:10:43.888Z,17.70
2018-11-05T21:15:27.840Z,18.07
2018-11-05T21:20:12.222Z,16.97
2018-11-05T21:24:57.621Z,17.80
2018-11-05T21:29:42.047Z,18.37
2018-11-05T21:34:25.828Z,17.90
2018-11-05T21:39:11.714Z,18.20
2018-11-05T21:43:55.780Z,17.43
2018-11-05T21:48:40.688Z,17.93
2018-11-05T21:53:24.680Z,17.93
2018-11-05T21:58:08.688Z,18.10
2018-11-05T22:02:57.675Z,18.73
2018-11-05T22:07:42.647Z,18.63
2018-11-05T22:12:26.678Z,18.10
2018-11-05T22:17:11.817Z,18.37
2018-11-05T22:21:56.340Z,18.20
2018-11-05T22:26:44.236Z,18.47
2018-11-05T22:31:28.307Z,19.23
2018-11-05T22:36:12.105Z,19.67
2018-11-05T22:40:56.244Z,19.77
2018-11-05T22:45:40.527Z,20.23
2018-11-05T22:50:24.696Z,20.40
2018-11-05T22:55:10.079Z,19.43
2018-11-05T22:59:53.951Z,20.13
2018-11-05T23:04:39.943Z,19.47
2018-11-05T23:09:24.145Z,19.23
2018-11-05T23:14:07.867Z,20.70
2018-11-05T23:18:52.520Z,18.70
2018-11-05T23:23:36.507Z,20.87
2018-11-05T23:28:20.315Z,21.47
2018-11-05T23:33:04.667Z,20.50
2018-11-05T23:37:48.433Z,21.30
2018-11-05T23:42:32.225Z,22.47
2018-11-05T23:47:15.949Z,21.93
2018-11-05T23:51:59.861Z,21.20
2018-11-05T23:56:43.541Z,20.37
